createdAt,value
2017-04-29T00:02:15.901Z,14.26
2017-04-29T00:04:43.445Z,15.48
2017-04-29T00:07:11.777Z,15.38
2017-04-29T00:09:39.708Z,14.78
2017-04-29T00:12:07.644Z,14.76
2017-04-29T00:14:35.220Z,13.88
2017-04-29T00:17:04.173Z,13.98
2017-04-29T00:19:32.147Z,14.92
2017-04-29T00:22:00.106Z,13.98
2017-04-29T00:24:28.016Z,14.10
2017-04-29T00:26:55.998Z,13.00
2017-04-29T00:29:24.324Z,13.92
2017-04-29T00:31:51.864Z,14.80
2017-04-29T00:34:19.425Z,15.38
2017-04-29T00:36:47.348Z,14.70
2017-04-29T00:39:15.328Z,15.60
2017-04-29T00:41:43.631Z,14.70
2017-04-29T00:44:11.200Z,15.14
2017-04-29T00:46:38.738Z,15.02
2017-04-29T00:49:06.677Z,13.88
2017-04-29T00:51:34.261Z,15.15
2017-04-29T00:54:02.205Z,14.67
2017-04-29T00:56:30.136Z,15.12
2017-04-29T00:58:58.101Z,15.04
2017-04-29T01:01:26.036Z,16.20
2017-04-29T01:03:54.348Z,14.50
2017-04-29T01:06:22.308Z,13.68
2017-04-29T01:08:50.266Z,14.42
2017-04-29T01:11:18.568Z,14.12
2017-04-29T01:13:46.538Z,13.98
2017-04-29T01:16:14.472Z,15.86
2017-04-29T01:18:42.784Z,15.34
2017-04-29T01:21:10.744Z,15.82
2017-04-29T01:23:38.695Z,17.47
2017-04-29T01:26:06.627Z,16.07
2017-04-29T01:28:34.597Z,16.12
2017-04-29T01:31:02.527Z,17.40
2017-04-29T01:33:30.468Z,15.67
2017-04-29T01:35:58.040Z,17.20
2017-04-29T01:38:25.975Z,17.53
2017-04-29T01:40:53.915Z,17.35
2017-04-29T01:43:21.877Z,17.90
2017-04-29T01:45:49.819Z,17.67
2017-04-29T01:48:18.129Z,19.20
2017-04-29T01:50:46.092Z,17.67
2017-04-29T01:53:14.025Z,16.52
2017-04-29T01:55:42.336Z,18.93
2017-04-29T01:58:09.903Z,19.18
2017-04-29T02:00:37.840Z,19.92
2017-04-29T02:03:06.147Z,20.90
2017-04-29T02:05:34.118Z,19.32
2017-04-29T02:08:01.668Z,22.25
2017-04-29T02:10:29.641Z,22.03
2017-04-29T02:12:57.776Z,21.05
2017-04-29T02:15:25.714Z,21.50
2017-04-29T02:17:53.652Z,22.37
2017-04-29T02:20:21.619Z,24.42
2017-04-29T02:22:49.555Z,22.28
2017-04-29T02:25:17.487Z,23.03
2017-04-29T02:27:45.464Z,23.33
2017-04-29T02:30:13.007Z,24.87
2017-04-29T02:32:40.943Z,24.50
2017-04-29T02:35:09.280Z,22.80
2017-04-29T02:37:37.221Z,23.48
2017-04-29T02:40:05.174Z,24.07
2017-04-29T02:42:33.508Z,23.33
2017-04-29T02:45:01.456Z,23.37
2017-04-29T02:47:29.389Z,23.45
2017-04-29T02:49:57.400Z,24.08
2017-04-29T02:52:25.339Z,24.95
2017-04-29T02:54:53.292Z,23.07
2017-04-29T02:57:21.632Z,22.63
2017-04-29T02:59:49.579Z,23.03
2017-04-29T03:02:17.512Z,23.83
2017-04-29T03:04:45.855Z,23.55
2017-04-29T03:07:13.833Z,21.73
2017-04-29T03:09:41.764Z,22.33
2017-04-29T03:12:09.728Z,21.32
2017-04-29T03:14:37.660Z,23.42
2017-04-29T03:17:05.569Z,22.52
2017-04-29T03:19:33.576Z,23.52
2017-04-29T03:22:01.509Z,22.85
2017-04-29T03:24:29.445Z,24.30
2017-04-29T03:26:57.783Z,24.63
2017-04-29T03:29:25.785Z,22.83
2017-04-29T03:31:53.325Z,23.38
2017-04-29T03:34:21.275Z,24.13
2017-04-29T03:36:49.217Z,24.12
2017-04-29T03:39:17.148Z,23.92
2017-04-29T03:41:45.104Z,24.45
2017-04-29T03:44:13.044Z,25.80
2017-04-29T03:46:40.976Z,23.95
2017-04-29T03:49:09.310Z,24.92
2017-04-29T03:51:37.249Z,24.98
2017-04-29T03:54:05.184Z,25.63
2017-04-29T03:56:33.145Z,24.72
2017-04-29T03:59:01.088Z,26.72
2017-04-29T04:01:28.631Z,25.23
2017-04-29T04:03:56.593Z,26.12
2017-04-29T04:06:24.132Z,24.28
2017-04-29T04:08:52.440Z,24.75
2017-04-29T04:11:20.000Z,25.62
2017-04-29T04:13:47.982Z,25.43
2017-04-29T04:16:15.921Z,22.38
2017-04-29T04:18:44.256Z,24.65
2017-04-29T04:21:12.196Z,25.22
2017-04-29T04:23:40.136Z,24.73
2017-04-29T04:26:08.468Z,28.30
2017-04-29T04:28:36.403Z,25.08
2017-04-29T04:31:04.339Z,25.90
2017-04-29T04:33:32.305Z,24.70
2017-04-29T04:36:00.247Z,24.47
2017-04-29T04:38:28.180Z,23.65
2017-04-29T04:40:56.146Z,25.15
2017-04-29T04:43:24.089Z,24.35
2017-04-29T04:45:52.396Z,26.32
2017-04-29T04:48:20.380Z,24.73
2017-04-29T04:50:48.324Z,24.73
2017-04-29T04:53:15.868Z,25.68
2017-04-29T04:55:43.841Z,23.45
2017-04-29T04:58:11.780Z,26.55
2017-04-29T05:00:39.721Z,25.15
2017-04-29T05:03:07.284Z,24.07
2017-04-29T05:05:34.827Z,22.45
2017-04-29T05:08:02.769Z,23.12
2017-04-29T05:10:30.742Z,23.18
2017-04-29T05:12:58.675Z,24.90
2017-04-29T05:15:26.612Z,23.87
2017-04-29T05:17:54.573Z,22.28
2017-04-29T05:20:22.509Z,24.58
2017-04-29T05:22:50.457Z,23.25
2017-04-29T05:25:18.428Z,21.93
2017-04-29T05:27:46.364Z,23.58
2017-04-29T05:30:14.295Z,20.48
2017-04-29T05:32:42.636Z,22.52
2017-04-29T05:35:10.580Z,22.26
2017-04-29T05:37:38.520Z,21.83
2017-04-29T05:40:06.483Z,24.30
2017-04-29T05:42:34.433Z,22.28
2017-04-29T05:45:01.980Z,22.02
2017-04-29T05:47:29.943Z,24.18
2017-04-29T05:49:57.875Z,23.40
2017-04-29T05:52:25.808Z,23.65
2017-04-29T05:54:53.389Z,22.57
2017-04-29T05:57:21.701Z,23.10
2017-04-29T05:59:49.636Z,22.67
2017-04-29T06:02:17.208Z,23.03
2017-04-29T06:04:45.516Z,21.64
2017-04-29T06:07:13.484Z,19.88
2017-04-29T06:09:41.456Z,21.28
2017-04-29T06:12:09.384Z,19.72
2017-04-29T06:14:37.312Z,21.22
2017-04-29T06:17:05.277Z,21.04
2017-04-29T06:19:33.212Z,20.50
2017-04-29T06:22:01.156Z,21.58
2017-04-29T06:24:29.115Z,19.14
2017-04-29T06:26:57.043Z,20.02
2017-04-29T06:29:24.980Z,17.26
2017-04-29T06:31:53.314Z,17.42
2017-04-29T06:34:21.252Z,18.54
2017-04-29T06:36:49.192Z,17.20
2017-04-29T06:39:17.143Z,17.28
2017-04-29T06:41:45.072Z,17.86
2017-04-29T06:44:13.009Z,19.20
2017-04-29T06:46:41.341Z,18.86
2017-04-29T06:49:09.275Z,20.06
2017-04-29T06:51:37.568Z,19.48
2017-04-29T06:54:05.128Z,21.12
2017-04-29T06:56:33.068Z,21.44
2017-04-29T06:59:01.376Z,20.96
2017-04-29T07:01:29.329Z,21.86
2017-04-29T07:03:57.648Z,20.76
2017-04-29T07:06:25.180Z,23.06
2017-04-29T07:08:53.143Z,20.80
2017-04-29T07:11:20.675Z,20.28
2017-04-29T07:13:48.607Z,19.54
2017-04-29T07:16:16.175Z,20.28
2017-04-29T07:18:44.107Z,22.28
2017-04-29T07:21:12.049Z,20.08
2017-04-29T07:23:39.627Z,20.78
2017-04-29T07:26:07.929Z,22.14
2017-04-29T07:28:35.476Z,20.34
2017-04-29T07:31:03.045Z,20.32
2017-04-29T07:33:30.977Z,17.98
2017-04-29T07:35:58.916Z,18.28
2017-04-29T07:38:26.884Z,20.64
2017-04-29T07:40:54.820Z,19.94
2017-04-29T07:43:22.752Z,20.52
2017-04-29T07:45:50.708Z,19.94
2017-04-29T07:48:18.641Z,20.62
2017-04-29T07:50:46.575Z,20.10
2017-04-29T07:53:14.959Z,19.76
2017-04-29T07:55:43.255Z,19.22
2017-04-29T07:58:11.199Z,20.12
2017-04-29T08:00:39.533Z,19.32
2017-04-29T08:03:07.468Z,17.98
2017-04-29T08:05:35.408Z,20.34
2017-04-29T08:08:03.369Z,18.62
2017-04-29T08:10:31.305Z,18.88
2017-04-29T08:12:58.844Z,16.96
2017-04-29T08:15:26.415Z,15.02
2017-04-29T08:17:54.372Z,14.02
2017-04-29T08:20:22.307Z,14.44
2017-04-29T08:22:50.269Z,12.48
2017-04-29T08:25:18.209Z,13.88
2017-04-29T08:27:46.146Z,14.14
2017-04-29T08:30:14.107Z,14.42
2017-04-29T08:32:42.416Z,13.12
2017-04-29T08:35:10.348Z,13.44
2017-04-29T08:37:38.685Z,15.22
2017-04-29T08:40:06.619Z,13.34
2017-04-29T08:42:34.560Z,13.52
2017-04-29T08:45:02.133Z,12.60
2017-04-29T08:47:30.431Z,13.90
2017-04-29T08:49:57.997Z,15.22
2017-04-29T08:52:25.936Z,13.72
2017-04-29T08:54:53.476Z,12.22
2017-04-29T08:57:21.435Z,13.86
2017-04-29T08:59:49.362Z,14.94
2017-04-29T09:02:16.909Z,12.28
2017-04-29T09:04:45.241Z,12.42
2017-04-29T09:07:13.169Z,12.32
2017-04-29T09:09:40.707Z,14.38
2017-04-29T09:12:09.052Z,12.14
2017-04-29T09:14:36.991Z,13.50
2017-04-29T09:17:04.928Z,14.54
2017-04-29T09:19:32.492Z,12.96
2017-04-29T09:22:00.036Z,13.62
2017-04-29T09:24:27.985Z,13.10
2017-04-29T09:26:55.981Z,13.78
2017-04-29T09:29:23.917Z,11.92
2017-04-29T09:31:51.852Z,9.74
2017-04-29T09:34:19.420Z,10.62
2017-04-29T09:36:47.357Z,11.60
2017-04-29T09:39:15.295Z,12.54
2017-04-29T09:41:43.256Z,10.72
2017-04-29T09:44:11.187Z,10.60
2017-04-29T09:46:39.157Z,10.84
2017-04-29T09:49:06.735Z,11.32
2017-04-29T09:51:34.275Z,11.38
2017-04-29T09:54:02.576Z,11.74
2017-04-29T09:56:30.143Z,11.56
2017-04-29T09:58:58.085Z,10.54
2017-04-29T10:01:26.042Z,11.66
2017-04-29T10:03:54.381Z,10.86
2017-04-29T10:06:22.316Z,11.78
2017-04-29T10:08:50.260Z,12.56
2017-04-29T10:11:18.591Z,13.22
2017-04-29T10:13:46.527Z,12.86
2017-04-29T10:16:14.069Z,12.08
2017-04-29T10:18:42.405Z,12.50
2017-04-29T10:21:10.347Z,13.66
2017-04-29T10:23:38.276Z,13.00
2017-04-29T10:26:06.232Z,12.50
2017-04-29T10:28:34.168Z,12.56
2017-04-29T10:31:02.106Z,12.08
2017-04-29T10:33:30.464Z,12.74
2017-04-29T10:35:58.032Z,11.62
2017-04-29T10:38:26.342Z,12.98
2017-04-29T10:40:54.275Z,11.54
2017-04-29T10:43:22.245Z,10.56
2017-04-29T10:45:50.201Z,11.84
2017-04-29T10:48:18.149Z,12.18
2017-04-29T10:50:45.723Z,11.16
2017-04-29T10:53:13.652Z,15.18
2017-04-29T10:55:41.586Z,13.64
2017-04-29T10:58:09.162Z,13.16
2017-04-29T11:00:37.487Z,13.06
2017-04-29T11:03:05.441Z,13.58
2017-04-29T11:05:33.020Z,13.30
2017-04-29T11:08:00.960Z,12.94
2017-04-29T11:10:28.914Z,14.62
2017-04-29T11:12:57.252Z,11.86
2017-04-29T11:15:25.195Z,11.70
2017-04-29T11:17:53.152Z,12.26
2017-04-29T11:20:21.083Z,12.98
2017-04-29T11:22:48.652Z,11.02
2017-04-29T11:25:16.955Z,12.66
2017-04-29T11:27:44.503Z,14.22
2017-04-29T11:30:12.831Z,13.38
2017-04-29T11:32:40.770Z,13.04
2017-04-29T11:35:08.704Z,12.88
2017-04-29T11:37:36.660Z,12.64
2017-04-29T11:40:04.604Z,13.04
2017-04-29T11:42:32.549Z,12.16
2017-04-29T11:45:00.516Z,11.86
2017-04-29T11:47:28.455Z,12.84
2017-04-29T11:49:56.777Z,12.22
2017-04-29T11:52:24.736Z,12.40
2017-04-29T11:54:52.293Z,11.74
2017-04-29T11:57:20.260Z,10.98
2017-04-29T11:59:47.821Z,11.52
2017-04-29T12:02:15.753Z,12.50
2017-04-29T12:04:43.712Z,13.10
2017-04-29T12:07:11.660Z,13.62
2017-04-29T12:09:39.207Z,13.16
2017-04-29T12:12:07.168Z,13.76
2017-04-29T12:14:35.100Z,12.12
2017-04-29T12:17:03.044Z,12.22
2017-04-29T12:19:31.020Z,12.74
2017-04-29T12:21:58.980Z,11.34
2017-04-29T12:24:26.917Z,10.24
2017-04-29T12:26:54.489Z,10.24
2017-04-29T12:29:22.415Z,10.70
2017-04-29T12:31:49.952Z,9.96
2017-04-29T12:34:17.912Z,9.88
2017-04-29T12:36:45.862Z,10.00
2017-04-29T12:39:13.950Z,9.94
2017-04-29T12:41:42.153Z,10.58
2017-04-29T12:44:09.705Z,10.38
2017-04-29T12:46:37.738Z,9.60
2017-04-29T12:49:05.703Z,9.72
2017-04-29T12:51:33.664Z,10.08
2017-04-29T12:54:02.077Z,10.22
2017-04-29T12:56:29.644Z,10.52
2017-04-29T12:58:57.606Z,9.74
2017-04-29T13:01:25.518Z,8.64
2017-04-29T13:03:53.508Z,10.32
2017-04-29T13:06:21.436Z,8.72
2017-04-29T13:08:49.409Z,10.48
2017-04-29T13:11:17.341Z,10.70
2017-04-29T13:13:45.274Z,11.32
2017-04-29T13:16:13.240Z,11.18
2017-04-29T13:18:41.177Z,12.62
2017-04-29T13:21:09.117Z,12.26
2017-04-29T13:23:37.076Z,12.08
2017-04-29T13:26:05.021Z,12.46
2017-04-29T13:28:32.970Z,11.04
2017-04-29T13:31:00.932Z,10.80
2017-04-29T13:33:28.868Z,11.20
2017-04-29T13:35:56.813Z,12.52
2017-04-29T13:38:24.389Z,11.72
2017-04-29T13:40:52.324Z,10.40
2017-04-29T13:43:19.882Z,10.76
2017-04-29T13:45:47.859Z,10.70
2017-04-29T13:48:15.791Z,10.68
2017-04-29T13:50:43.743Z,10.66
2017-04-29T13:53:11.322Z,11.36
2017-04-29T13:55:39.254Z,11.18
2017-04-29T13:58:06.794Z,12.70
2017-04-29T14:00:34.359Z,10.48
2017-04-29T14:03:02.676Z,11.48
2017-04-29T14:05:30.214Z,11.70
2017-04-29T14:07:58.543Z,11.50
2017-04-29T14:10:26.480Z,11.30
2017-04-29T14:12:54.416Z,11.42
2017-04-29T14:15:22.376Z,12.24
2017-04-29T14:17:50.314Z,11.14
2017-04-29T14:20:18.248Z,10.74
2017-04-29T14:22:46.215Z,10.72
2017-04-29T14:25:14.157Z,11.32
2017-04-29T14:27:42.101Z,10.86
2017-04-29T14:30:09.664Z,10.56
2017-04-29T14:32:37.600Z,11.66
2017-04-29T14:35:05.528Z,10.64
2017-04-29T14:37:33.479Z,8.46
2017-04-29T14:40:01.415Z,10.56
2017-04-29T14:42:29.381Z,10.18
2017-04-29T14:44:57.326Z,11.96
2017-04-29T14:47:25.636Z,11.02
2017-04-29T14:49:53.563Z,10.32
2017-04-29T14:52:21.887Z,10.28
2017-04-29T14:54:49.816Z,9.32
2017-04-29T14:57:18.124Z,11.28
2017-04-29T14:59:45.688Z,10.38
2017-04-29T15:02:13.235Z,10.16
2017-04-29T15:04:41.167Z,10.40
2017-04-29T15:07:09.128Z,9.36
2017-04-29T15:09:37.057Z,8.50
2017-04-29T15:12:04.992Z,10.48
2017-04-29T15:14:32.953Z,10.68
2017-04-29T15:17:00.888Z,10.04
2017-04-29T15:19:28.828Z,10.38
2017-04-29T15:21:56.787Z,10.42
2017-04-29T15:24:24.741Z,10.54
2017-04-29T15:26:52.293Z,10.62
2017-04-29T15:29:20.248Z,10.80
2017-04-29T15:31:48.185Z,10.62
2017-04-29T15:34:16.121Z,10.90
2017-04-29T15:36:43.685Z,9.14
2017-04-29T15:39:11.993Z,10.78
2017-04-29T15:41:39.924Z,11.28
2017-04-29T15:44:07.880Z,11.98
2017-04-29T15:46:35.823Z,11.00
2017-04-29T15:49:03.765Z,10.66
2017-04-29T15:51:31.722Z,9.56
2017-04-29T15:53:59.657Z,8.98
2017-04-29T15:56:27.587Z,8.08
2017-04-29T15:58:55.548Z,9.64
2017-04-29T16:01:23.479Z,9.66
2017-04-29T16:03:51.787Z,9.68
2017-04-29T16:06:19.747Z,9.50
2017-04-29T16:08:47.693Z,9.66
2017-04-29T16:11:15.652Z,9.22
2017-04-29T16:13:43.616Z,8.48
2017-04-29T16:16:11.546Z,8.66
2017-04-29T16:18:39.081Z,9.10
2017-04-29T16:21:07.408Z,8.06
2017-04-29T16:23:35.343Z,8.70
2017-04-29T16:26:03.275Z,9.96
2017-04-29T16:28:31.236Z,10.24
2017-04-29T16:30:59.172Z,9.86
2017-04-29T16:33:27.110Z,8.96
2017-04-29T16:35:55.801Z,8.92
2017-04-29T16:38:23.728Z,8.32
2017-04-29T16:40:51.665Z,8.72
2017-04-29T16:43:19.584Z,8.06
2017-04-29T16:45:47.557Z,8.16
2017-04-29T16:48:15.876Z,9.00
2017-04-29T16:50:43.819Z,8.28
2017-04-29T16:53:11.364Z,7.46
2017-04-29T16:55:39.260Z,9.70
2017-04-29T16:58:07.223Z,8.80
2017-04-29T17:00:35.515Z,9.22
2017-04-29T17:03:03.443Z,9.12
2017-04-29T17:05:31.408Z,7.78
2017-04-29T17:07:59.348Z,8.16
2017-04-29T17:10:26.893Z,9.72
2017-04-29T17:12:54.847Z,7.64
2017-04-29T17:15:22.788Z,9.18
2017-04-29T17:17:50.735Z,8.56
2017-04-29T17:20:18.700Z,8.54
2017-04-29T17:22:46.641Z,8.56
2017-04-29T17:25:14.581Z,9.06
2017-04-29T17:27:42.916Z,8.40
2017-04-29T17:30:10.853Z,9.40
2017-04-29T17:32:38.805Z,7.98
2017-04-29T17:35:07.141Z,8.42
2017-04-29T17:37:35.089Z,8.72
2017-04-29T17:40:02.624Z,8.90
2017-04-29T17:42:30.585Z,8.88
2017-04-29T17:44:58.900Z,9.62
2017-04-29T17:47:26.848Z,9.04
2017-04-29T17:49:54.415Z,8.42
2017-04-29T17:52:22.376Z,9.58
2017-04-29T17:54:50.328Z,8.86
2017-04-29T17:57:18.637Z,8.40
2017-04-29T17:59:46.604Z,9.52
2017-04-29T18:02:14.148Z,8.32
2017-04-29T18:04:42.093Z,9.52
2017-04-29T18:07:10.055Z,9.08
2017-04-29T18:09:38.001Z,9.74
2017-04-29T18:12:05.944Z,8.72
2017-04-29T18:14:33.937Z,10.00
2017-04-29T18:17:01.485Z,9.88
2017-04-29T18:19:29.020Z,8.36
2017-04-29T18:21:57.105Z,8.18
2017-04-29T18:24:25.039Z,8.58
2017-04-29T18:26:52.588Z,8.76
2017-04-29T18:29:20.549Z,8.26
2017-04-29T18:31:48.531Z,9.50
2017-04-29T18:34:16.485Z,8.42
2017-04-29T18:36:44.457Z,8.04
2017-04-29T18:39:12.400Z,10.12
2017-04-29T18:41:40.364Z,9.08
2017-04-29T18:44:08.376Z,11.06
2017-04-29T18:46:36.314Z,9.04
2017-04-29T18:49:04.297Z,9.56
2017-04-29T18:51:32.379Z,8.88
2017-04-29T18:54:00.414Z,9.48
2017-04-29T18:56:28.407Z,8.74
2017-04-29T18:58:56.352Z,9.36
2017-04-29T19:01:24.529Z,9.02
2017-04-29T19:03:52.580Z,9.48
2017-04-29T19:06:20.690Z,9.66
2017-04-29T19:08:48.811Z,9.92
2017-04-29T19:11:17.318Z,9.78
2017-04-29T19:13:45.507Z,10.10
2017-04-29T19:16:13.773Z,9.18
2017-04-29T19:18:42.124Z,10.08
2017-04-29T19:21:10.844Z,10.26
2017-04-29T19:23:39.382Z,9.46
2017-04-29T19:26:07.919Z,10.84
2017-04-29T19:28:36.312Z,9.60
2017-04-29T19:31:04.800Z,10.16
2017-04-29T19:33:33.551Z,8.96
2017-04-29T19:36:02.258Z,10.34
2017-04-29T19:38:31.018Z,10.24
2017-04-29T19:40:59.633Z,10.10
2017-04-29T19:43:28.151Z,13.06
2017-04-29T19:45:56.358Z,10.88
2017-04-29T19:48:24.787Z,10.98
2017-04-29T19:50:53.992Z,11.36
2017-04-29T19:53:23.843Z,13.86
2017-04-29T19:55:52.899Z,11.40
2017-04-29T19:58:22.239Z,11.44
2017-04-29T20:00:51.133Z,11.76
2017-04-29T20:03:20.041Z,12.08
2017-04-29T20:05:49.002Z,12.54
2017-04-29T20:08:17.881Z,12.46
2017-04-29T20:10:46.891Z,11.96
2017-04-29T20:13:15.800Z,11.92
2017-04-29T20:15:44.382Z,12.38
2017-04-29T20:18:13.334Z,11.32
2017-04-29T20:20:42.431Z,12.18
2017-04-29T20:23:11.828Z,11.00
2017-04-29T20:25:41.215Z,11.74
2017-04-29T20:28:10.107Z,12.00
2017-04-29T20:30:38.690Z,13.58
2017-04-29T20:33:07.605Z,13.12
2017-04-29T20:35:37.094Z,12.40
2017-04-29T20:38:05.944Z,12.66
2017-04-29T20:40:34.587Z,12.96
2017-04-29T20:43:03.186Z,13.60
2017-04-29T20:45:31.646Z,12.40
2017-04-29T20:47:59.958Z,11.34
2017-04-29T20:50:28.480Z,12.84
2017-04-29T20:52:56.377Z,12.18
2017-04-29T20:55:24.653Z,13.08
2017-04-29T20:57:52.968Z,13.32
2017-04-29T21:00:21.191Z,12.36
2017-04-29T21:02:48.789Z,13.76
2017-04-29T21:05:16.935Z,12.94
2017-04-29T21:07:44.915Z,13.22
2017-04-29T21:10:12.924Z,12.32
2017-04-29T21:12:41.176Z,14.90
2017-04-29T21:15:08.922Z,15.38
2017-04-29T21:17:36.916Z,12.84
2017-04-29T21:20:04.495Z,12.78
2017-04-29T21:22:32.058Z,12.96
2017-04-29T21:24:59.995Z,14.06
2017-04-29T21:27:27.961Z,14.58
2017-04-29T21:29:55.886Z,13.54
2017-04-29T21:32:23.821Z,14.16
2017-04-29T21:34:51.393Z,17.36
2017-04-29T21:37:19.324Z,15.86
2017-04-29T21:39:47.258Z,15.46
2017-04-29T21:42:15.220Z,15.24
2017-04-29T21:44:43.155Z,15.38
2017-04-29T21:47:11.088Z,15.60
2017-04-29T21:49:39.420Z,16.68
2017-04-29T21:52:07.351Z,17.64
2017-04-29T21:54:35.314Z,16.72
2017-04-29T21:57:03.617Z,15.48
2017-04-29T21:59:31.548Z,15.65
2017-04-29T22:01:59.881Z,15.14
2017-04-29T22:04:27.817Z,14.50
2017-04-29T22:06:55.754Z,16.30
2017-04-29T22:09:23.703Z,16.08
2017-04-29T22:11:51.639Z,15.32
2017-04-29T22:14:19.175Z,15.22
2017-04-29T22:16:47.144Z,16.76
2017-04-29T22:19:15.460Z,14.92
2017-04-29T22:21:43.028Z,15.94
2017-04-29T22:24:10.989Z,16.12
2017-04-29T22:26:38.915Z,14.66
2017-04-29T22:29:07.215Z,14.66
2017-04-29T22:31:35.167Z,15.12
2017-04-29T22:34:03.137Z,14.52
2017-04-29T22:36:30.671Z,14.88
2017-04-29T22:38:58.624Z,15.12
2017-04-29T22:41:26.555Z,16.22
2017-04-29T22:43:54.492Z,14.82
2017-04-29T22:46:22.064Z,15.70
2017-04-29T22:48:50.383Z,16.10
2017-04-29T22:51:18.313Z,15.56
2017-04-29T22:53:46.635Z,15.40
2017-04-29T22:56:14.568Z,16.82
2017-04-29T22:58:42.869Z,15.58
2017-04-29T23:01:10.828Z,16.54
2017-04-29T23:03:38.760Z,17.18
2017-04-29T23:06:06.321Z,20.08
2017-04-29T23:08:34.280Z,16.82
2017-04-29T23:11:02.223Z,16.32
2017-04-29T23:13:30.147Z,15.94
2017-04-29T23:15:58.472Z,16.40
2017-04-29T23:18:26.420Z,16.83
2017-04-29T23:20:54.351Z,15.40
2017-04-29T23:23:21.920Z,18.26
2017-04-29T23:25:50.252Z,17.20
2017-04-29T23:28:18.179Z,15.58
2017-04-29T23:30:46.519Z,17.47
2017-04-29T23:33:14.452Z,15.56
2017-04-29T23:35:42.388Z,14.70
2017-04-29T23:38:09.972Z,16.90
2017-04-29T23:40:38.272Z,15.85
2017-04-29T23:43:06.207Z,15.50
2017-04-29T23:45:34.548Z,16.84
2017-04-29T23:48:02.496Z,16.07
2017-04-29T23:50:30.435Z,16.68
2017-04-29T23:52:58.765Z,17.10
2017-04-29T23:55:26.695Z,16.42
2017-04-29T23:57:54.240Z,16.03
